Time;durP1;ratioP1;P1;durP2;ratioP2;P2;SDS_P1;SDS_P2;PMS_P1;PMS_P2;Temp;Humidity;BMP_temperature;BMP_pressure;BME280_temperature;BME280_humidity;BME280_pressure;Samples;Min_cycle;Max_cycle;Signal;HPM_P1;HPM_P2
2022/11/18 00:00:51;;;;;;;0.30;0.30;;;9.40;99.90;;;;;;4959733;28;20260;-69
2022/11/18 00:03:17;;;;;;;0.85;0.85;;;9.40;99.90;;;;;;4959965;28;20408;-68
2022/11/18 00:05:51;;;;;;;0.40;0.40;;;9.30;99.90;;;;;;4959956;28;20300;-69
2022/11/18 00:08:16;;;;;;;0.30;0.30;;;9.30;99.90;;;;;;4959686;28;20436;-69
2022/11/18 00:10:42;;;;;;;0.30;0.30;;;9.30;99.90;;;;;;4958872;28;20216;-68
2022/11/18 00:16:09;;;;;;;0.30;0.30;;;9.10;99.90;;;;;;4959129;28;20263;-67
2022/11/18 00:18:35;;;;;;;0.30;0.30;;;9.10;99.90;;;;;;4958797;28;20195;-68
2022/11/18 00:21:05;;;;;;;0.30;0.30;;;9.10;99.90;;;;;;4959031;28;20237;-69
2022/11/18 00:23:31;;;;;;;0.30;0.30;;;9.10;99.90;;;;;;4958928;28;20227;-70
2022/11/18 00:26:08;;;;;;;0.30;0.30;;;9.00;99.90;;;;;;4959265;28;20583;-67
2022/11/18 00:28:34;;;;;;;0.30;0.30;;;9.00;99.90;;;;;;4958969;28;20419;-70
2022/11/18 00:31:01;;;;;;;0.30;0.30;;;9.20;99.90;;;;;;4959184;28;20174;-68
2022/11/18 00:33:27;;;;;;;0.30;0.30;;;9.20;99.90;;;;;;4958592;28;20180;-68
2022/11/18 00:35:54;;;;;;;0.40;0.40;;;9.10;99.90;;;;;;4958624;28;20208;-68
2022/11/18 00:38:20;;;;;;;0.30;0.30;;;9.10;99.90;;;;;;4958688;28;20184;-68
2022/11/18 00:40:45;;;;;;;0.30;0.30;;;9.10;99.90;;;;;;4958688;28;20264;-68
2022/11/18 00:43:11;;;;;;;0.30;0.30;;;9.10;99.90;;;;;;4958867;28;20259;-67
2022/11/18 00:45:37;;;;;;;0.30;0.30;;;9.10;99.90;;;;;;4958645;28;20706;-70
2022/11/18 00:48:02;;;;;;;0.30;0.30;;;9.00;99.90;;;;;;4958452;28;20543;-68
2022/11/18 00:50:28;;;;;;;0.30;0.30;;;8.90;99.90;;;;;;4958260;28;20177;-69
2022/11/18 00:52:54;;;;;;;0.30;0.30;;;8.80;99.90;;;;;;4958573;28;20185;-67
2022/11/18 00:55:19;;;;;;;0.30;0.30;;;8.80;99.90;;;;;;4958048;28;20205;-67
2022/11/18 00:57:45;;;;;;;0.30;0.30;;;9.00;99.90;;;;;;4958661;28;20166;-69
2022/11/18 01:00:11;;;;;;;0.30;0.30;;;9.00;99.90;;;;;;4957813;28;20172;-67
2022/11/18 01:02:37;;;;;;;0.30;0.30;;;8.90;99.90;;;;;;4957999;28;20174;-68
2022/11/18 01:05:03;;;;;;;0.30;0.30;;;8.80;99.90;;;;;;4957723;28;20189;-68
2022/11/18 01:07:29;;;;;;;0.30;0.30;;;8.80;99.90;;;;;;4958477;28;20185;-69
2022/11/18 01:09:56;;;;;;;0.30;0.30;;;8.80;99.90;;;;;;4957664;28;20185;-68
2022/11/18 01:15:06;;;;;;;0.30;0.30;;;9.00;99.90;;;;;;4957762;28;20265;-67
2022/11/18 01:17:32;;;;;;;0.30;0.30;;;9.10;99.90;;;;;;4956493;29;20228;-67
2022/11/18 01:19:58;;;;;;;0.30;0.30;;;9.10;99.90;;;;;;4957488;28;20212;-68
2022/11/18 01:22:24;;;;;;;0.30;0.30;;;9.10;99.90;;;;;;4957875;28;20200;-69
2022/11/18 01:24:49;;;;;;;0.30;0.30;;;9.10;99.90;;;;;;4958067;28;20693;-69
2022/11/18 01:27:15;;;;;;;0.30;0.30;;;9.10;99.90;;;;;;4957696;28;20244;-68
2022/11/18 01:29:41;;;;;;;0.30;0.30;;;9.20;99.90;;;;;;4957404;28;20182;-67
2022/11/18 01:32:06;;;;;;;0.30;0.30;;;9.20;99.90;;;;;;4957666;28;20205;-69
2022/11/18 01:34:32;;;;;;;0.30;0.30;;;9.20;99.90;;;;;;4957407;28;20226;-67
2022/11/18 01:36:58;;;;;;;0.30;0.30;;;9.20;99.90;;;;;;4957832;28;20260;-68
2022/11/18 01:39:24;;;;;;;0.30;0.30;;;9.00;99.90;;;;;;4957278;28;20594;-67
2022/11/18 01:41:50;;;;;;;0.30;0.30;;;8.70;99.90;;;;;;4957465;28;20174;-69
2022/11/18 01:44:53;;;;;;;0.40;0.40;;;8.70;99.90;;;;;;4957314;28;20223;-68
2022/11/18 01:47:19;;;;;;;0.30;0.30;;;8.70;99.90;;;;;;4957582;29;20171;-69
2022/11/18 01:49:45;;;;;;;0.30;0.30;;;8.70;99.90;;;;;;4956906;28;20729;-69
2022/11/18 01:52:11;;;;;;;0.30;0.30;;;8.70;99.90;;;;;;4956964;28;20272;-68
2022/11/18 01:54:41;;;;;;;0.30;0.30;;;8.80;99.90;;;;;;4956827;28;20193;-67
2022/11/18 01:57:13;;;;;;;0.30;0.30;;;8.80;99.90;;;;;;4957226;28;20176;-68
2022/11/18 01:59:40;;;;;;;0.30;0.30;;;8.90;99.90;;;;;;4956889;28;20209;-68
2022/11/18 02:02:11;;;;;;;0.40;0.40;;;8.90;99.90;;;;;;4956776;28;20184;-66
2022/11/18 02:04:39;;;;;;;0.30;0.30;;;8.80;99.90;;;;;;4956210;28;20200;-68
2022/11/18 02:07:06;;;;;;;0.30;0.30;;;8.80;99.90;;;;;;4956060;28;20244;-69
2022/11/18 02:09:32;;;;;;;0.30;0.30;;;8.90;99.90;;;;;;4956535;28;20177;-69
2022/11/18 02:11:57;;;;;;;10.50;0.77;;;8.80;99.90;;;;;;4957196;28;20170;-69
2022/11/18 02:14:27;;;;;;;0.40;0.40;;;8.90;99.90;;;;;;4956479;28;20343;-68
2022/11/18 02:17:22;;;;;;;0.30;0.30;;;8.90;99.90;;;;;;4956699;28;21009;-67
2022/11/18 02:19:53;;;;;;;0.30;0.30;;;8.90;99.90;;;;;;4934988;28;20192;-67
2022/11/18 02:22:48;;;;;;;0.30;0.30;;;8.80;99.90;;;;;;4956792;28;20210;-69
2022/11/18 02:25:23;;;;;;;0.30;0.30;;;8.80;99.90;;;;;;4956967;28;20259;-68
2022/11/18 02:27:58;;;;;;;0.40;0.40;;;8.80;99.90;;;;;;4956467;28;20198;-69
2022/11/18 02:30:24;;;;;;;0.30;0.30;;;8.80;99.90;;;;;;4956393;28;20180;-69
2022/11/18 02:33:08;;;;;;;0.30;0.30;;;8.70;99.90;;;;;;4956734;28;20172;-69
2022/11/18 02:35:48;;;;;;;0.30;0.30;;;8.70;99.90;;;;;;4956719;28;20514;-67
2022/11/18 02:38:24;;;;;;;0.30;0.30;;;8.70;99.90;;;;;;4956468;28;20613;-66
2022/11/18 02:41:00;;;;;;;0.30;0.30;;;8.70;99.90;;;;;;4956261;28;20220;-67
2022/11/18 02:43:40;;;;;;;0.40;0.40;;;8.70;99.90;;;;;;4956646;28;20179;-69
2022/11/18 02:46:10;;;;;;;0.30;0.30;;;8.60;99.90;;;;;;4955931;28;20192;-68
2022/11/18 02:48:40;;;;;;;0.30;0.30;;;8.40;99.90;;;;;;4955842;28;20208;-70
2022/11/18 02:51:08;;;;;;;0.30;0.30;;;8.40;99.90;;;;;;4956342;28;20172;-69
2022/11/18 02:53:37;;;;;;;0.30;0.30;;;8.50;99.90;;;;;;4956487;28;20629;-68
2022/11/18 02:56:03;;;;;;;0.40;0.40;;;8.50;99.90;;;;;;4956286;28;20218;-67
2022/11/18 02:58:29;;;;;;;0.30;0.30;;;8.50;99.90;;;;;;4956400;28;20179;-67
2022/11/18 03:00:57;;;;;;;0.30;0.30;;;8.50;99.90;;;;;;4955861;28;20251;-67
2022/11/18 03:03:35;;;;;;;0.30;0.30;;;8.60;99.90;;;;;;4956079;28;20203;-69
2022/11/18 03:06:07;;;;;;;0.30;0.30;;;8.70;99.90;;;;;;4956038;28;20197;-69
2022/11/18 03:08:51;;;;;;;0.30;0.30;;;8.70;99.90;;;;;;4955978;28;20299;-69
2022/11/18 03:11:29;;;;;;;0.30;0.30;;;8.50;99.90;;;;;;4956280;28;20190;-69
2022/11/18 03:14:26;;;;;;;0.30;0.30;;;8.60;99.90;;;;;;4955618;28;20256;-67
2022/11/18 03:17:02;;;;;;;0.30;0.30;;;8.70;99.90;;;;;;4955230;28;20216;-67
2022/11/18 03:19:45;;;;;;;0.40;0.40;;;8.70;99.90;;;;;;4955748;28;20189;-69
2022/11/18 03:22:51;;;;;;;0.30;0.30;;;8.70;99.90;;;;;;4955904;28;20659;-68
2022/11/18 03:25:28;;;;;;;0.30;0.30;;;8.70;99.90;;;;;;4955036;28;20572;-67
2022/11/18 03:28:10;;;;;;;0.30;0.30;;;8.60;99.90;;;;;;4955927;28;20164;-67
2022/11/18 03:30:41;;;;;;;0.30;0.30;;;8.40;99.90;;;;;;4955604;28;20598;-67
2022/11/18 03:33:16;;;;;;;0.40;0.40;;;8.40;99.90;;;;;;4955814;28;20634;-67
2022/11/18 03:35:46;;;;;;;0.30;0.30;;;8.40;99.90;;;;;;4955463;28;20212;-68
2022/11/18 03:38:19;;;;;;;0.30;0.30;;;8.50;99.90;;;;;;4955420;28;20621;-67
2022/11/18 03:40:50;;;;;;;0.30;0.30;;;8.60;99.90;;;;;;4955288;28;20184;-69
2022/11/18 03:43:21;;;;;;;0.60;0.60;;;8.60;99.90;;;;;;4955697;28;20200;-68
2022/11/18 03:45:51;;;;;;;0.30;0.30;;;8.60;99.90;;;;;;4955749;28;20204;-68
2022/11/18 03:48:21;;;;;;;0.30;0.30;;;8.70;99.90;;;;;;4955863;28;20176;-68
2022/11/18 03:50:57;;;;;;;0.40;0.40;;;8.70;99.90;;;;;;4955099;28;20626;-68
2022/11/18 03:53:25;;;;;;;0.30;0.30;;;8.50;99.90;;;;;;4955563;28;20186;-69
2022/11/18 03:55:55;;;;;;;1.10;0.45;;;8.60;99.90;;;;;;4955417;28;20296;-68
2022/11/18 03:58:29;;;;;;;0.30;0.30;;;8.70;99.90;;;;;;4955616;28;20180;-68
2022/11/18 04:01:15;;;;;;;0.30;0.30;;;8.70;99.90;;;;;;4955632;28;20176;-67
2022/11/18 04:03:41;;;;;;;0.30;0.30;;;8.70;99.90;;;;;;4955289;28;20271;-69
2022/11/18 04:06:52;;;;;;;0.30;0.30;;;8.70;99.90;;;;;;4955353;28;20212;-68
2022/11/18 04:09:24;;;;;;;0.30;0.30;;;8.70;99.90;;;;;;4942320;29;20192;-67
2022/11/18 04:12:03;;;;;;;0.40;0.40;;;8.60;99.90;;;;;;4955403;28;20184;-68
2022/11/18 04:14:31;;;;;;;0.30;0.30;;;8.50;99.90;;;;;;4955426;28;20221;-66
2022/11/18 04:16:57;;;;;;;0.30;0.30;;;8.50;99.90;;;;;;4955076;28;20200;-68
2022/11/18 04:19:22;;;;;;;0.30;0.30;;;8.50;99.90;;;;;;4955051;28;20191;-68
2022/11/18 04:21:49;;;;;;;0.30;0.30;;;8.50;99.90;;;;;;4955229;28;20232;-67
2022/11/18 04:24:15;;;;;;;0.30;0.30;;;8.50;99.90;;;;;;4955335;28;20185;-69
2022/11/18 04:26:40;;;;;;;0.30;0.30;;;8.50;99.90;;;;;;4955170;28;20505;-69
2022/11/18 04:29:06;;;;;;;0.30;0.30;;;8.30;99.90;;;;;;4956185;28;20179;-69
2022/11/18 04:31:32;;;;;;;0.30;0.30;;;8.20;99.90;;;;;;4958975;28;20763;-68
2022/11/18 04:33:57;;;;;;;0.30;0.30;;;8.10;99.90;;;;;;4958929;28;20183;-68
2022/11/18 04:36:23;;;;;;;0.40;0.40;;;8.20;99.90;;;;;;4958878;28;20200;-68
2022/11/18 04:38:49;;;;;;;0.30;0.30;;;8.10;99.90;;;;;;4958447;28;20182;-67
2022/11/18 04:41:14;;;;;;;0.30;0.30;;;7.90;99.90;;;;;;4958382;28;20176;-68
2022/11/18 04:43:40;;;;;;;0.40;0.40;;;7.90;99.90;;;;;;4958556;28;20172;-68
2022/11/18 04:46:06;;;;;;;0.40;0.40;;;7.90;99.90;;;;;;4958511;28;20191;-67
2022/11/18 04:48:32;;;;;;;0.40;0.40;;;7.90;99.90;;;;;;4958453;28;20446;-70
2022/11/18 04:51:01;;;;;;;0.40;0.40;;;7.80;99.90;;;;;;4958751;28;20271;-67
2022/11/18 04:53:27;;;;;;;0.30;0.30;;;7.70;99.90;;;;;;4958297;28;20203;-67
2022/11/18 04:55:53;;;;;;;0.30;0.30;;;7.70;99.90;;;;;;4958164;28;20260;-67
2022/11/18 04:58:18;;;;;;;1.03;1.03;;;7.50;99.90;;;;;;4958262;28;20255;-68
2022/11/18 05:00:44;;;;;;;0.30;0.30;;;7.40;99.90;;;;;;4958162;28;20177;-68
2022/11/18 05:03:09;;;;;;;0.40;0.40;;;7.40;99.90;;;;;;4958425;28;20567;-69
2022/11/18 05:05:35;;;;;;;0.40;0.40;;;7.40;99.90;;;;;;4958491;28;20260;-69
2022/11/18 05:08:01;;;;;;;0.30;0.30;;;7.40;99.90;;;;;;4957856;28;20234;-68
2022/11/18 05:10:26;;;;;;;0.30;0.30;;;7.50;99.90;;;;;;4957835;28;20206;-69
2022/11/18 05:12:52;;;;;;;0.30;0.30;;;7.60;99.90;;;;;;4957974;28;20207;-70
2022/11/18 05:15:20;;;;;;;0.30;0.30;;;7.70;99.90;;;;;;4957924;28;20207;-69
2022/11/18 05:17:47;;;;;;;0.30;0.30;;;7.70;99.90;;;;;;4958121;28;20188;-69
2022/11/18 05:20:13;;;;;;;0.30;0.30;;;7.70;99.90;;;;;;4957462;28;20209;-69
2022/11/18 05:22:40;;;;;;;0.30;0.30;;;7.70;99.90;;;;;;4957626;28;20579;-68
2022/11/18 05:25:07;;;;;;;0.30;0.30;;;7.70;99.90;;;;;;4957687;28;20661;-69
2022/11/18 05:27:32;;;;;;;0.35;0.35;;;7.70;99.90;;;;;;4957687;28;20205;-69
2022/11/18 05:29:58;;;;;;;0.30;0.30;;;7.70;99.90;;;;;;4957365;28;20209;-67
2022/11/18 05:32:24;;;;;;;0.40;0.40;;;7.60;99.90;;;;;;4957875;28;20179;-67
2022/11/18 05:34:49;;;;;;;0.40;0.40;;;7.50;99.90;;;;;;4957908;28;20564;-69
2022/11/18 05:37:15;;;;;;;0.30;0.30;;;7.40;99.90;;;;;;4957559;28;20255;-69
2022/11/18 05:39:41;;;;;;;0.30;0.30;;;7.20;99.90;;;;;;4956938;28;20509;-67
2022/11/18 05:44:51;;;;;;;0.30;0.30;;;7.20;99.90;;;;;;4957765;28;20201;-69
2022/11/18 05:47:17;;;;;;;0.30;0.30;;;7.10;99.90;;;;;;4957879;28;20266;-68
2022/11/18 05:49:43;;;;;;;0.52;0.52;;;7.00;99.90;;;;;;4955774;29;20639;-69
2022/11/18 05:52:08;;;;;;;0.30;0.30;;;7.10;99.90;;;;;;4957195;28;20211;-69
2022/11/18 05:54:37;;;;;;;0.30;0.30;;;7.10;99.90;;;;;;4957004;28;20235;-69
2022/11/18 05:57:03;;;;;;;0.40;0.40;;;7.00;99.90;;;;;;4957357;28;20184;-69
2022/11/18 05:59:30;;;;;;;0.30;0.30;;;7.10;99.90;;;;;;4956885;28;20187;-69
2022/11/18 06:02:02;;;;;;;0.65;0.65;;;7.20;99.90;;;;;;4955708;29;20183;-68
2022/11/18 06:04:40;;;;;;;0.30;0.30;;;7.20;99.90;;;;;;4957135;28;20182;-70
2022/11/18 06:07:18;;;;;;;0.30;0.30;;;7.30;99.90;;;;;;4955839;29;20261;-68
2022/11/18 06:09:48;;;;;;;0.43;0.43;;;7.40;99.90;;;;;;4956671;28;20648;-67
2022/11/18 06:12:18;;;;;;;0.35;0.35;;;7.40;99.90;;;;;;4957116;28;20263;-69
2022/11/18 06:14:53;;;;;;;0.47;0.47;;;7.60;99.90;;;;;;4956555;28;20205;-68
2022/11/18 06:17:47;;;;;;;0.30;0.30;;;7.60;99.90;;;;;;4956666;28;20663;-69
2022/11/18 06:20:12;;;;;;;0.30;0.30;;;7.70;99.90;;;;;;4956456;28;20182;-67
2022/11/18 06:22:38;;;;;;;0.30;0.30;;;7.80;99.90;;;;;;4956864;28;20182;-67
2022/11/18 06:25:04;;;;;;;0.30;0.30;;;7.90;99.90;;;;;;4956390;28;20201;-69
2022/11/18 06:27:30;;;;;;;0.30;0.30;;;7.80;99.90;;;;;;4956748;28;20601;-68
2022/11/18 06:29:55;;;;;;;0.30;0.30;;;7.90;99.90;;;;;;4956717;28;20207;-66
2022/11/18 06:32:21;;;;;;;0.93;0.93;;;7.90;99.90;;;;;;4956634;28;20202;-68
2022/11/18 06:34:47;;;;;;;0.30;0.30;;;7.90;99.90;;;;;;4956306;28;20207;-69
2022/11/18 06:37:19;;;;;;;0.40;0.40;;;7.80;99.90;;;;;;4956656;28;20183;-68
2022/11/18 06:39:45;;;;;;;0.40;0.40;;;7.80;99.90;;;;;;4956381;28;20247;-68
2022/11/18 06:43:37;;;;;;;0.30;0.30;;;7.70;99.90;;;;;;4956263;28;20184;-68
2022/11/18 06:44:57;;;;;;;0.50;0.50;;;7.70;99.90;;;;;;4956259;28;20567;-69
2022/11/18 06:47:22;;;;;;;0.30;0.30;;;7.80;99.90;;;;;;4956623;28;20176;-67
2022/11/18 06:49:48;;;;;;;0.30;0.30;;;7.80;99.90;;;;;;4956001;28;20261;-68
2022/11/18 06:52:13;;;;;;;0.30;0.30;;;7.80;99.90;;;;;;4955609;28;20617;-69
2022/11/18 06:54:39;;;;;;;0.30;0.30;;;7.80;99.90;;;;;;4955730;28;20191;-68
2022/11/18 06:57:05;;;;;;;1.03;0.70;;;7.80;99.90;;;;;;4956172;28;20203;-69
2022/11/18 06:59:31;;;;;;;0.30;0.30;;;7.90;99.90;;;;;;4956001;28;20605;-67
2022/11/18 07:01:56;;;;;;;0.30;0.30;;;7.90;99.90;;;;;;4956167;28;20180;-69
2022/11/18 07:04:22;;;;;;;0.40;0.40;;;7.70;99.90;;;;;;4956380;28;20536;-69
2022/11/18 07:06:48;;;;;;;0.30;0.30;;;7.70;99.90;;;;;;4955781;28;20184;-69
2022/11/18 07:09:13;;;;;;;0.30;0.30;;;7.70;99.90;;;;;;4955577;28;20179;-68
2022/11/18 07:11:40;;;;;;;0.40;0.40;;;7.70;99.90;;;;;;4955695;28;20177;-68
2022/11/18 07:14:09;;;;;;;0.35;0.35;;;7.80;99.90;;;;;;4956088;28;20175;-67
2022/11/18 07:16:36;;;;;;;0.40;0.40;;;7.90;99.90;;;;;;4956083;28;20212;-68
2022/11/18 07:19:07;;;;;;;0.30;0.30;;;7.90;99.90;;;;;;4955502;28;20180;-68
2022/11/18 07:21:33;;;;;;;0.30;0.30;;;7.80;99.90;;;;;;4955884;28;20257;-69
2022/11/18 07:23:59;;;;;;;0.33;0.33;;;7.80;99.90;;;;;;4955747;28;20661;-68
2022/11/18 07:26:24;;;;;;;0.30;0.30;;;7.80;99.90;;;;;;4955626;28;20656;-68
2022/11/18 07:28:50;;;;;;;0.30;0.30;;;7.90;99.90;;;;;;4955698;28;20179;-69
2022/11/18 07:31:18;;;;;;;0.30;0.30;;;8.00;99.90;;;;;;4954757;29;20184;-69
2022/11/18 07:33:45;;;;;;;0.35;0.35;;;8.10;99.90;;;;;;4956093;28;20498;-69
2022/11/18 07:36:17;;;;;;;0.30;0.30;;;8.20;99.90;;;;;;4955203;28;20230;-69
2022/11/18 07:38:43;;;;;;;1.02;0.95;;;8.30;99.90;;;;;;4955527;28;20165;-68
2022/11/18 07:41:17;;;;;;;0.30;0.30;;;8.00;99.90;;;;;;4955665;28;20180;-66
2022/11/18 07:43:43;;;;;;;0.43;0.40;;;8.00;99.90;;;;;;4955908;28;20171;-66
2022/11/18 07:46:16;;;;;;;0.40;0.40;;;8.00;99.90;;;;;;4955933;28;20663;-67
2022/11/18 07:48:43;;;;;;;0.40;0.40;;;8.10;99.90;;;;;;4955384;28;20189;-66
2022/11/18 07:51:10;;;;;;;0.30;0.30;;;8.10;99.90;;;;;;4955551;28;20250;-69
2022/11/18 07:53:36;;;;;;;0.30;0.30;;;8.00;99.90;;;;;;4955742;28;20180;-68
2022/11/18 07:56:02;;;;;;;0.40;0.40;;;8.00;99.90;;;;;;4955039;28;20204;-68
2022/11/18 07:58:28;;;;;;;0.40;0.40;;;8.00;99.90;;;;;;4955877;28;20516;-68
2022/11/18 08:00:54;;;;;;;0.30;0.30;;;7.90;99.90;;;;;;4955054;28;20177;-69
2022/11/18 08:03:27;;;;;;;0.30;0.30;;;8.00;99.90;;;;;;4955599;28;20764;-69
2022/11/18 08:05:59;;;;;;;0.30;0.30;;;8.10;99.90;;;;;;4959221;28;20200;-67
2022/11/18 08:08:25;;;;;;;0.30;0.30;;;8.10;99.90;;;;;;4959480;28;20181;-67
2022/11/18 08:10:55;;;;;;;0.30;0.30;;;8.10;99.90;;;;;;4959159;28;20208;-68
2022/11/18 08:13:20;;;;;;;1.15;0.40;;;8.20;99.90;;;;;;4958993;28;20250;-68
2022/11/18 08:15:46;;;;;;;0.40;0.40;;;8.30;99.90;;;;;;4957572;28;20532;-69
2022/11/18 08:18:11;;;;;;;0.50;0.50;;;8.30;99.90;;;;;;4959100;28;20611;-68
2022/11/18 08:20:37;;;;;;;1.10;1.10;;;8.30;99.90;;;;;;4958871;28;20622;-70
2022/11/18 08:23:03;;;;;;;0.40;0.40;;;8.30;99.90;;;;;;4959114;28;20200;-68
2022/11/18 08:25:29;;;;;;;0.40;0.40;;;8.30;99.90;;;;;;4958619;28;20220;-68
2022/11/18 08:27:54;;;;;;;0.30;0.30;;;8.30;99.90;;;;;;4958014;29;20180;-68
2022/11/18 08:30:20;;;;;;;0.30;0.30;;;8.30;99.90;;;;;;4958464;28;20172;-67
2022/11/18 08:32:45;;;;;;;0.30;0.30;;;8.40;99.90;;;;;;4958668;28;20537;-67
2022/11/18 08:35:11;;;;;;;0.30;0.30;;;8.50;99.90;;;;;;4958349;28;20201;-69
2022/11/18 08:37:37;;;;;;;0.30;0.30;;;8.50;99.90;;;;;;4958909;28;20169;-67
2022/11/18 08:40:03;;;;;;;0.53;0.53;;;8.40;99.90;;;;;;4958217;28;20168;-68
2022/11/18 08:42:29;;;;;;;1.42;0.73;;;8.30;99.90;;;;;;4958885;28;20193;-68
2022/11/18 08:44:55;;;;;;;0.30;0.30;;;8.40;99.90;;;;;;4958326;28;20279;-69
2022/11/18 08:47:20;;;;;;;0.40;0.40;;;8.40;99.90;;;;;;4958416;28;20181;-69
2022/11/18 08:49:46;;;;;;;0.30;0.30;;;8.50;99.90;;;;;;4958078;28;20172;-67
2022/11/18 08:52:12;;;;;;;0.40;0.40;;;8.60;99.90;;;;;;4958769;28;20413;-68
2022/11/18 08:54:37;;;;;;;0.30;0.30;;;8.50;99.90;;;;;;4958406;28;20193;-67
2022/11/18 08:57:03;;;;;;;0.30;0.30;;;8.40;99.90;;;;;;4958647;28;20216;-67
2022/11/18 08:59:29;;;;;;;0.30;0.30;;;8.40;99.90;;;;;;4957930;28;20231;-69
2022/11/18 09:01:54;;;;;;;0.30;0.30;;;8.40;99.90;;;;;;4958180;28;20404;-69
2022/11/18 09:04:20;;;;;;;0.30;0.30;;;8.20;99.90;;;;;;4958102;28;20180;-66
2022/11/18 09:06:46;;;;;;;0.30;0.30;;;8.10;99.90;;;;;;4958444;28;20176;-68
2022/11/18 09:09:11;;;;;;;0.30;0.30;;;8.10;99.90;;;;;;4958011;28;20179;-69
2022/11/18 09:11:38;;;;;;;0.30;0.30;;;8.10;99.90;;;;;;4958378;28;20180;-69
2022/11/18 09:14:04;;;;;;;0.30;0.30;;;8.20;99.90;;;;;;4957750;28;20175;-67
2022/11/18 09:16:33;;;;;;;0.40;0.40;;;8.10;99.90;;;;;;4957342;28;20367;-69
2022/11/18 09:18:59;;;;;;;0.40;0.40;;;8.00;99.90;;;;;;4957700;28;20598;-68
2022/11/18 09:21:26;;;;;;;0.65;0.60;;;8.00;99.90;;;;;;4957990;28;20177;-67
2022/11/18 09:23:52;;;;;;;0.40;0.40;;;8.00;99.90;;;;;;4957957;28;20179;-67
2022/11/18 09:26:19;;;;;;;0.30;0.30;;;8.10;99.90;;;;;;4957802;28;20199;-69
2022/11/18 09:28:46;;;;;;;0.40;0.40;;;8.30;99.90;;;;;;4957137;28;20809;-68
2022/11/18 09:31:14;;;;;;;0.40;0.40;;;8.40;99.90;;;;;;4957416;28;20196;-68
2022/11/18 09:33:40;;;;;;;0.50;0.50;;;8.50;99.90;;;;;;4957521;28;20183;-69
2022/11/18 09:36:18;;;;;;;0.30;0.30;;;8.30;99.90;;;;;;4957197;28;20235;-69
2022/11/18 09:38:44;;;;;;;0.40;0.40;;;8.20;99.90;;;;;;4957231;28;20174;-68
2022/11/18 09:41:10;;;;;;;0.30;0.30;;;8.40;99.90;;;;;;4957371;28;20641;-69
2022/11/18 09:43:46;;;;;;;0.57;0.47;;;8.50;99.90;;;;;;4957346;28;20536;-68
2022/11/18 09:46:36;;;;;;;0.60;0.60;;;8.70;99.90;;;;;;4957147;28;20208;-69
2022/11/18 09:49:12;;;;;;;0.40;0.40;;;8.80;99.90;;;;;;4957040;28;20177;-69
2022/11/18 09:51:41;;;;;;;0.40;0.40;;;9.00;99.90;;;;;;4957475;28;20258;-67
2022/11/18 09:54:21;;;;;;;0.30;0.30;;;9.00;99.90;;;;;;4957095;28;20199;-68
2022/11/18 09:56:49;;;;;;;0.30;0.30;;;8.90;99.90;;;;;;4956841;28;20197;-70
2022/11/18 09:59:18;;;;;;;0.30;0.30;;;9.10;99.90;;;;;;4955516;29;20181;-67
2022/11/18 10:01:44;;;;;;;0.30;0.30;;;9.30;99.90;;;;;;4956979;28;20192;-70
2022/11/18 10:04:16;;;;;;;0.30;0.30;;;9.30;99.90;;;;;;4956925;28;20219;-69
2022/11/18 10:06:43;;;;;;;0.30;0.30;;;9.30;99.90;;;;;;4956829;28;20184;-69
2022/11/18 10:09:40;;;;;;;0.30;0.30;;;9.30;99.90;;;;;;4956535;29;20200;-68
2022/11/18 10:12:27;;;;;;;0.30;0.30;;;9.30;99.90;;;;;;4956473;29;20183;-70
2022/11/18 10:15:11;;;;;;;0.40;0.40;;;9.20;99.90;;;;;;4956712;28;20604;-69
2022/11/18 10:17:50;;;;;;;0.30;0.30;;;8.90;99.90;;;;;;4957075;29;20634;-70
2022/11/18 10:20:30;;;;;;;0.30;0.30;;;8.60;99.90;;;;;;4956414;28;20180;-70
2022/11/18 10:23:12;;;;;;;0.52;0.50;;;8.70;99.90;;;;;;4956572;28;20172;-70
2022/11/18 10:25:38;;;;;;;0.50;0.50;;;8.80;99.90;;;;;;4956741;28;20206;-68
2022/11/18 10:28:30;;;;;;;0.30;0.30;;;8.90;99.90;;;;;;4956287;28;20176;-69
2022/11/18 10:31:08;;;;;;;0.30;0.30;;;9.00;99.90;;;;;;4956433;28;20174;-69
2022/11/18 10:33:35;;;;;;;0.30;0.30;;;8.80;99.90;;;;;;4956503;28;20192;-68
2022/11/18 10:36:18;;;;;;;0.30;0.30;;;8.90;99.90;;;;;;4954519;28;20224;-69
2022/11/18 10:38:44;;;;;;;0.30;0.30;;;8.70;99.90;;;;;;4956120;28;20301;-68
2022/11/18 10:41:16;;;;;;;0.40;0.40;;;8.80;99.90;;;;;;4956227;28;20263;-69
2022/11/18 10:43:55;;;;;;;0.38;0.38;;;8.80;99.90;;;;;;4955709;28;20405;-68
2022/11/18 10:46:30;;;;;;;0.30;0.30;;;8.90;99.90;;;;;;4954802;28;20744;-68
2022/11/18 10:49:08;;;;;;;0.30;0.30;;;8.80;99.90;;;;;;4954977;28;20231;-69
2022/11/18 10:51:36;;;;;;;0.30;0.30;;;8.80;99.90;;;;;;4955046;28;20179;-70
2022/11/18 10:54:14;;;;;;;0.40;0.40;;;8.70;99.90;;;;;;4954993;28;20185;-69
2022/11/18 10:56:50;;;;;;;0.30;0.30;;;8.70;99.90;;;;;;4954923;28;20254;-69
2022/11/18 10:59:49;;;;;;;0.38;0.38;;;8.80;99.90;;;;;;4954846;28;20208;-67
2022/11/18 11:02:37;;;;;;;0.30;0.30;;;8.90;99.90;;;;;;4951223;28;20200;-69
2022/11/18 11:05:20;;;;;;;0.40;0.40;;;9.00;99.90;;;;;;4955776;28;20268;-68
2022/11/18 11:08:04;;;;;;;0.50;0.50;;;8.90;99.90;;;;;;4956082;28;20161;-68
2022/11/18 11:10:30;;;;;;;0.30;0.30;;;8.80;99.90;;;;;;4954445;28;20623;-68
2022/11/18 11:13:11;;;;;;;0.30;0.30;;;8.70;99.90;;;;;;4955561;28;20229;-70
2022/11/18 11:15:43;;;;;;;0.30;0.30;;;8.70;99.90;;;;;;4955169;28;20247;-67
2022/11/18 11:18:42;;;;;;;0.30;0.30;;;8.90;99.90;;;;;;4955670;28;20545;-69
2022/11/18 11:21:14;;;;;;;0.30;0.30;;;8.90;99.90;;;;;;4955798;28;20169;-69
2022/11/18 11:23:40;;;;;;;0.40;0.40;;;8.90;99.90;;;;;;4955409;28;20177;-69
2022/11/18 11:26:18;;;;;;;0.50;0.50;;;8.90;99.90;;;;;;4955520;28;20196;-70
2022/11/18 11:28:52;;;;;;;0.30;0.30;;;9.00;99.90;;;;;;4955234;28;20650;-68
2022/11/18 11:31:34;;;;;;;0.30;0.30;;;8.90;99.90;;;;;;4955427;28;20677;-69
2022/11/18 11:34:31;;;;;;;0.40;0.40;;;8.90;99.90;;;;;;4955834;28;20172;-69
2022/11/18 11:37:15;;;;;;;0.32;0.32;;;8.90;99.90;;;;;;4955193;28;20286;-67
2022/11/18 11:39:40;;;;;;;0.30;0.30;;;8.90;99.90;;;;;;4958888;28;20191;-70
2022/11/18 11:42:27;;;;;;;0.30;0.30;;;9.00;99.90;;;;;;4959090;29;20170;-69
2022/11/18 11:45:06;;;;;;;0.30;0.30;;;9.00;99.90;;;;;;4959233;28;20201;-69
2022/11/18 11:47:55;;;;;;;0.30;0.30;;;8.90;99.90;;;;;;4959128;28;20160;-68
2022/11/18 11:50:26;;;;;;;0.70;0.70;;;8.90;99.90;;;;;;4959105;28;20540;-69
2022/11/18 11:53:07;;;;;;;0.40;0.40;;;9.10;99.90;;;;;;4959430;28;20265;-70
2022/11/18 11:55:47;;;;;;;0.40;0.40;;;9.30;99.90;;;;;;4958974;28;20204;-68
2022/11/18 11:58:50;;;;;;;0.40;0.40;;;9.50;99.90;;;;;;4957970;29;20603;-67
2022/11/18 12:01:53;;;;;;;0.30;0.30;;;9.60;99.90;;;;;;4959220;29;20635;-70
2022/11/18 12:04:46;;;;;;;0.30;0.30;;;9.60;99.90;;;;;;4959260;28;20176;-67
2022/11/18 12:07:25;;;;;;;0.50;0.50;;;9.60;99.90;;;;;;4959163;28;20177;-70
2022/11/18 12:09:56;;;;;;;0.40;0.40;;;9.40;99.90;;;;;;4958958;28;20544;-70
2022/11/18 12:12:35;;;;;;;0.50;0.50;;;9.30;99.90;;;;;;4958816;28;20178;-69
2022/11/18 12:15:12;;;;;;;1.23;0.60;;;9.00;99.90;;;;;;4958822;28;20223;-67
2022/11/18 12:17:53;;;;;;;0.40;0.40;;;8.90;99.90;;;;;;4958745;28;20271;-70
2022/11/18 12:20:52;;;;;;;0.30;0.30;;;8.80;99.90;;;;;;4958609;28;20204;-68
2022/11/18 12:23:24;;;;;;;0.30;0.30;;;8.80;99.90;;;;;;4926795;28;20183;-70
2022/11/18 12:25:53;;;;;;;0.40;0.40;;;8.70;99.90;;;;;;4958549;28;20285;-70
2022/11/18 12:28:40;;;;;;;0.30;0.30;;;8.60;99.90;;;;;;4958659;28;20225;-69
2022/11/18 12:31:18;;;;;;;1.20;1.05;;;8.60;99.90;;;;;;4958699;28;20189;-69
2022/11/18 12:33:57;;;;;;;0.30;0.30;;;8.70;99.90;;;;;;4958541;28;20181;-68
2022/11/18 12:36:38;;;;;;;0.40;0.40;;;8.70;99.90;;;;;;4958279;28;20224;-70
2022/11/18 12:39:26;;;;;;;0.60;0.40;;;8.70;99.90;;;;;;4958497;28;20642;-68
2022/11/18 12:44:48;;;;;;;0.30;0.30;;;8.90;99.90;;;;;;4958431;28;20283;-68
2022/11/18 12:47:33;;;;;;;0.30;0.30;;;8.90;99.90;;;;;;4958295;28;20184;-70
2022/11/18 12:49:59;;;;;;;0.50;0.50;;;8.90;99.90;;;;;;4957416;28;20180;-69
2022/11/18 12:52:30;;;;;;;0.50;0.50;;;9.00;99.90;;;;;;4958322;28;20177;-70
2022/11/18 12:55:00;;;;;;;0.32;0.32;;;9.10;99.90;;;;;;4957917;28;20235;-70
2022/11/18 12:57:31;;;;;;;0.55;0.55;;;9.10;99.90;;;;;;4958088;28;20173;-69
2022/11/18 12:59:57;;;;;;;1.10;1.10;;;9.00;99.90;;;;;;4957782;28;20594;-68
2022/11/18 13:02:29;;;;;;;0.60;0.60;;;9.10;99.90;;;;;;4958113;28;20176;-70
2022/11/18 13:05:05;;;;;;;0.60;0.60;;;9.00;99.90;;;;;;4958103;28;20340;-70
2022/11/18 13:10:25;;;;;;;0.73;0.73;;;9.10;99.90;;;;;;4958066;29;20259;-68
2022/11/18 13:12:51;;;;;;;0.40;0.40;;;8.90;99.90;;;;;;4957967;28;20267;-68
2022/11/18 13:18:20;;;;;;;0.40;0.40;;;8.90;99.90;;;;;;4957600;29;20195;-70
2022/11/18 13:20:57;;;;;;;0.40;0.40;;;8.80;99.90;;;;;;4957460;29;20180;-69
2022/11/18 13:26:28;;;;;;;0.30;0.30;;;8.60;99.90;;;;;;4957462;28;20238;-70
2022/11/18 13:28:56;;;;;;;0.35;0.35;;;8.50;99.90;;;;;;4957266;28;20187;-67
2022/11/18 13:31:45;;;;;;;0.40;0.40;;;8.50;99.90;;;;;;4957516;28;20181;-69
2022/11/18 13:34:20;;;;;;;0.30;0.30;;;8.50;99.90;;;;;;4957240;28;20177;-70
2022/11/18 13:36:49;;;;;;;0.50;0.50;;;8.50;99.90;;;;;;4957422;28;20616;-69
2022/11/18 13:39:21;;;;;;;0.50;0.50;;;8.40;99.90;;;;;;4957074;28;20250;-70